Portada
METAR-TAF:

METAR-TAF

Aeroports :

Kufra, Líbia

latitud: 24-13N, longitud: 023-18E, altitud: 417 m

METAR: manca

Hora: 19:35 (17:35 UTC)

Pronòstic

L'informe es va fer fa 18 hores i 35 minuts, a les 23:00 UTC
Pronòstic vàlid del 22 a les 00 UTC al 22 a les 24 UTC
Vent 12 kt del Nord/Nord-Est
Visibilitat 10 km o més
sense núvols per sota de 1500 mi sense presència de cumulonimbus.

TAF: HLKF 212300Z 2200/2224 02012KT CAVOK

Observacions i pronòstics meteorològics de més de 4000 aeroports (METAR i TAF).

Les estacions disponibles són els punts grocs i vermells al mapa.

Posi el ratolí al punt desitjat per veure el nom de l'estació.

Feu clic per veure les observacions i els pronòstics meteorològics.

Per canviar el mapa: feu clic els botons verds amb una creu de color negre per apropar; al botó verd amb un guió per allunyar la imatge; o en les fletxes verdes per a mapes adjacents.


METAR-TAF: